sensor_id;sensor_type;location;lat;lon;timestamp;temperature;humidity
43143;DHT22;28750;59.842;17.584;2023-07-20T00:00:14;13.20;1.00
43143;DHT22;28750;59.842;17.584;2023-07-20T00:02:42;13.30;1.00
43143;DHT22;28750;59.842;17.584;2023-07-20T00:05:10;13.20;99.90
43143;DHT22;28750;59.842;17.584;2023-07-20T00:07:37;13.30;1.00
43143;DHT22;28750;59.842;17.584;2023-07-20T00:10:04;13.20;1.00
43143;DHT22;28750;59.842;17.584;2023-07-20T00:12:31;13.20;1.00
43143;DHT22;28750;59.842;17.584;2023-07-20T00:14:58;13.20;1.00
43143;DHT22;28750;59.842;17.584;2023-07-20T00:17:26;13.20;1.00
43143;DHT22;28750;59.842;17.584;2023-07-20T00:19:53;13.30;99.90
43143;DHT22;28750;59.842;17.584;2023-07-20T00:22:20;13.30;99.90
43143;DHT22;28750;59.842;17.584;2023-07-20T00:24:47;13.30;99.90
43143;DHT22;28750;59.842;17.584;2023-07-20T00:27:15;13.20;1.00
43143;DHT22;28750;59.842;17.584;2023-07-20T00:29:42;13.20;99.90
43143;DHT22;28750;59.842;17.584;2023-07-20T00:32:09;13.20;99.90
43143;DHT22;28750;59.842;17.584;2023-07-20T00:34:36;13.10;99.90
43143;DHT22;28750;59.842;17.584;2023-07-20T00:37:03;13.10;99.90
43143;DHT22;28750;59.842;17.584;2023-07-20T00:39:30;13.00;99.90
43143;DHT22;28750;59.842;17.584;2023-07-20T00:41:58;12.90;99.90
43143;DHT22;28750;59.842;17.584;2023-07-20T00:44:25;12.90;99.90
43143;DHT22;28750;59.842;17.584;2023-07-20T00:46:53;12.90;99.90
43143;DHT22;28750;59.842;17.584;2023-07-20T00:49:20;12.90;99.90
43143;DHT22;28750;59.842;17.584;2023-07-20T00:51:48;12.90;99.90
43143;DHT22;28750;59.842;17.584;2023-07-20T00:54:16;12.80;99.90
43143;DHT22;28750;59.842;17.584;2023-07-20T00:56:44;12.70;99.90
43143;DHT22;28750;59.842;17.584;2023-07-20T00:59:11;12.80;99.90
43143;DHT22;28750;59.842;17.584;2023-07-20T01:01:38;12.80;99.90
43143;DHT22;28750;59.842;17.584;2023-07-20T01:04:06;12.80;99.90
43143;DHT22;28750;59.842;17.584;2023-07-20T01:06:48;12.70;99.90
43143;DHT22;28750;59.842;17.584;2023-07-20T01:09:29;12.60;99.90
43143;DHT22;28750;59.842;17.584;2023-07-20T01:14:29;12.70;1.00
43143;DHT22;28750;59.842;17.584;2023-07-20T01:16:58;12.70;1.00
43143;DHT22;28750;59.842;17.584;2023-07-20T01:19:25;12.60;1.00
43143;DHT22;28750;59.842;17.584;2023-07-20T01:27:25;12.70;43.80
43143;DHT22;28750;59.842;17.584;2023-07-20T01:32:48;12.70;99.90
43143;DHT22;28750;59.842;17.584;2023-07-20T01:35:16;12.80;99.90
43143;DHT22;28750;59.842;17.584;2023-07-20T01:37:46;12.80;99.90
43143;DHT22;28750;59.842;17.584;2023-07-20T01:40:14;12.70;99.90
43143;DHT22;28750;59.842;17.584;2023-07-20T01:42:46;12.80;99.90
43143;DHT22;28750;59.842;17.584;2023-07-20T01:45:14;12.80;99.90
43143;DHT22;28750;59.842;17.584;2023-07-20T01:47:41;12.70;99.90
43143;DHT22;28750;59.842;17.584;2023-07-20T01:50:09;12.80;99.90
43143;DHT22;28750;59.842;17.584;2023-07-20T01:52:36;12.70;99.90
43143;DHT22;28750;59.842;17.584;2023-07-20T01:55:04;12.80;99.90
43143;DHT22;28750;59.842;17.584;2023-07-20T01:57:31;12.80;99.90
43143;DHT22;28750;59.842;17.584;2023-07-20T01:59:59;12.80;99.90
43143;DHT22;28750;59.842;17.584;2023-07-20T02:02:27;12.80;99.90
43143;DHT22;28750;59.842;17.584;2023-07-20T02:04:54;12.80;99.90
43143;DHT22;28750;59.842;17.584;2023-07-20T02:07:21;12.90;99.90
43143;DHT22;28750;59.842;17.584;2023-07-20T02:09:48;12.80;99.90
43143;DHT22;28750;59.842;17.584;2023-07-20T02:12:15;12.70;99.90
43143;DHT22;28750;59.842;17.584;2023-07-20T02:14:43;12.70;99.90
43143;DHT22;28750;59.842;17.584;2023-07-20T02:17:10;12.70;99.90
43143;DHT22;28750;59.842;17.584;2023-07-20T02:19:37;12.60;1.00
43143;DHT22;28750;59.842;17.584;2023-07-20T02:22:05;12.60;1.00
43143;DHT22;28750;59.842;17.584;2023-07-20T02:24:33;12.70;1.00
43143;DHT22;28750;59.842;17.584;2023-07-20T02:27:00;12.50;50.00
43143;DHT22;28750;59.842;17.584;2023-07-20T02:29:28;12.50;66.90
43143;DHT22;28750;59.842;17.584;2023-07-20T02:31:55;12.50;92.00
43143;DHT22;28750;59.842;17.584;2023-07-20T02:34:22;12.60;99.90
43143;DHT22;28750;59.842;17.584;2023-07-20T02:36:49;12.60;79.10
43143;DHT22;28750;59.842;17.584;2023-07-20T02:39:16;12.50;99.90
43143;DHT22;28750;59.842;17.584;2023-07-20T02:41:43;12.40;99.90
43143;DHT22;28750;59.842;17.584;2023-07-20T02:44:11;12.40;99.90
43143;DHT22;28750;59.842;17.584;2023-07-20T02:46:38;12.30;99.90
43143;DHT22;28750;59.842;17.584;2023-07-20T02:49:05;12.30;99.90
43143;DHT22;28750;59.842;17.584;2023-07-20T02:51:32;12.30;99.90
43143;DHT22;28750;59.842;17.584;2023-07-20T02:53:59;12.30;99.90
43143;DHT22;28750;59.842;17.584;2023-07-20T02:56:27;12.30;99.90
43143;DHT22;28750;59.842;17.584;2023-07-20T02:58:54;12.20;99.90
43143;DHT22;28750;59.842;17.584;2023-07-20T03:01:21;12.20;99.90
43143;DHT22;28750;59.842;17.584;2023-07-20T03:03:48;12.20;99.90
43143;DHT22;28750;59.842;17.584;2023-07-20T03:06:16;12.10;99.90
43143;DHT22;28750;59.842;17.584;2023-07-20T03:08:43;12.30;99.90
43143;DHT22;28750;59.842;17.584;2023-07-20T03:11:14;12.20;99.90
43143;DHT22;28750;59.842;17.584;2023-07-20T03:13:42;12.20;99.90
43143;DHT22;28750;59.842;17.584;2023-07-20T03:16:10;12.30;99.90
43143;DHT22;28750;59.842;17.584;2023-07-20T03:18:38;12.20;99.90
43143;DHT22;28750;59.842;17.584;2023-07-20T03:21:07;12.40;99.90
43143;DHT22;28750;59.842;17.584;2023-07-20T03:23:35;12.20;99.90
43143;DHT22;28750;59.842;17.584;2023-07-20T03:26:03;12.40;99.90
43143;DHT22;28750;59.842;17.584;2023-07-20T03:28:30;12.50;99.90
43143;DHT22;28750;59.842;17.584;2023-07-20T03:30:57;12.60;99.90
43143;DHT22;28750;59.842;17.584;2023-07-20T03:33:27;12.50;99.90
43143;DHT22;28750;59.842;17.584;2023-07-20T03:35:55;12.60;99.90
43143;DHT22;28750;59.842;17.584;2023-07-20T03:38:23;12.60;99.90
43143;DHT22;28750;59.842;17.584;2023-07-20T03:40:54;12.70;99.90
43143;DHT22;28750;59.842;17.584;2023-07-20T03:43:23;12.80;99.90
43143;DHT22;28750;59.842;17.584;2023-07-20T03:45:50;12.90;99.90
43143;DHT22;28750;59.842;17.584;2023-07-20T03:48:21;12.70;99.90
43143;DHT22;28750;59.842;17.584;2023-07-20T03:50:50;12.70;99.90
43143;DHT22;28750;59.842;17.584;2023-07-20T03:53:18;12.60;99.90
43143;DHT22;28750;59.842;17.584;2023-07-20T03:55:49;12.60;99.90
43143;DHT22;28750;59.842;17.584;2023-07-20T03:58:18;12.40;99.90
43143;DHT22;28750;59.842;17.584;2023-07-20T04:00:49;12.40;99.90
43143;DHT22;28750;59.842;17.584;2023-07-20T04:03:18;12.40;99.90
43143;DHT22;28750;59.842;17.584;2023-07-20T04:05:45;12.40;99.90
43143;DHT22;28750;59.842;17.584;2023-07-20T04:08:12;12.30;99.90
43143;DHT22;28750;59.842;17.584;2023-07-20T04:10:43;12.30;99.90
43143;DHT22;28750;59.842;17.584;2023-07-20T04:13:11;12.20;99.90
43143;DHT22;28750;59.842;17.584;2023-07-20T04:15:38;12.40;99.90
43143;DHT22;28750;59.842;17.584;2023-07-20T04:18:05;12.30;99.90
43143;DHT22;28750;59.842;17.584;2023-07-20T04:20:32;12.60;99.90
43143;DHT22;28750;59.842;17.584;2023-07-20T04:23:00;12.80;99.90
43143;DHT22;28750;59.842;17.584;2023-07-20T04:25:27;12.80;99.90
43143;DHT22;28750;59.842;17.584;2023-07-20T04:27:54;12.80;99.90
43143;DHT22;28750;59.842;17.584;2023-07-20T04:30:21;12.80;99.90
43143;DHT22;28750;59.842;17.584;2023-07-20T04:32:49;13.20;99.90
43143;DHT22;28750;59.842;17.584;2023-07-20T04:35:52;13.10;99.90
43143;DHT22;28750;59.842;17.584;2023-07-20T04:38:20;13.50;99.90
43143;DHT22;28750;59.842;17.584;2023-07-20T04:40:49;13.60;91.60
43143;DHT22;28750;59.842;17.584;2023-07-20T04:43:17;13.70;8.50
43143;DHT22;28750;59.842;17.584;2023-07-20T04:45:45;14.00;1.00
43143;DHT22;28750;59.842;17.584;2023-07-20T04:48:16;14.10;99.90
43143;DHT22;28750;59.842;17.584;2023-07-20T04:50:44;14.00;99.90
43143;DHT22;28750;59.842;17.584;2023-07-20T04:53:12;14.00;1.00
43143;DHT22;28750;59.842;17.584;2023-07-20T04:55:40;14.10;97.10
43143;DHT22;28750;59.842;17.584;2023-07-20T04:58:07;14.10;99.90
43143;DHT22;28750;59.842;17.584;2023-07-20T05:00:37;14.20;1.00
43143;DHT22;28750;59.842;17.584;2023-07-20T05:03:05;14.40;99.90
43143;DHT22;28750;59.842;17.584;2023-07-20T05:05:32;14.60;99.90
43143;DHT22;28750;59.842;17.584;2023-07-20T05:07:59;15.10;99.90
43143;DHT22;28750;59.842;17.584;2023-07-20T05:10:26;14.70;99.90
43143;DHT22;28750;59.842;17.584;2023-07-20T05:12:53;14.80;1.00
43143;DHT22;28750;59.842;17.584;2023-07-20T05:15:21;15.00;99.90
43143;DHT22;28750;59.842;17.584;2023-07-20T05:17:48;14.90;99.90
43143;DHT22;28750;59.842;17.584;2023-07-20T05:20:15;15.10;99.90
43143;DHT22;28750;59.842;17.584;2023-07-20T05:22:42;15.40;99.90
43143;DHT22;28750;59.842;17.584;2023-07-20T05:25:11;15.40;1.00
43143;DHT22;28750;59.842;17.584;2023-07-20T05:27:39;15.30;99.90
43143;DHT22;28750;59.842;17.584;2023-07-20T05:30:07;15.40;99.90
43143;DHT22;28750;59.842;17.584;2023-07-20T05:32:34;15.40;99.90
43143;DHT22;28750;59.842;17.584;2023-07-20T05:35:01;15.60;99.90
43143;DHT22;28750;59.842;17.584;2023-07-20T05:37:28;15.60;99.90
43143;DHT22;28750;59.842;17.584;2023-07-20T05:39:56;15.90;99.90
43143;DHT22;28750;59.842;17.584;2023-07-20T05:42:24;16.10;99.90
43143;DHT22;28750;59.842;17.584;2023-07-20T05:44:51;15.90;99.90
43143;DHT22;28750;59.842;17.584;2023-07-20T05:47:19;15.90;41.50
43143;DHT22;28750;59.842;17.584;2023-07-20T05:49:47;15.80;1.00
43143;DHT22;28750;59.842;17.584;2023-07-20T05:52:14;15.70;99.90
43143;DHT22;28750;59.842;17.584;2023-07-20T05:54:41;15.80;1.00
43143;DHT22;28750;59.842;17.584;2023-07-20T05:57:08;16.00;1.00
43143;DHT22;28750;59.842;17.584;2023-07-20T05:59:35;16.40;1.00
43143;DHT22;28750;59.842;17.584;2023-07-20T06:02:04;16.50;99.90
43143;DHT22;28750;59.842;17.584;2023-07-20T06:04:31;16.30;99.90
43143;DHT22;28750;59.842;17.584;2023-07-20T06:06:58;16.30;79.40
43143;DHT22;28750;59.842;17.584;2023-07-20T06:09:25;16.50;99.90
43143;DHT22;28750;59.842;17.584;2023-07-20T06:11:53;16.80;38.50
43143;DHT22;28750;59.842;17.584;2023-07-20T06:14:20;16.60;1.00
43143;DHT22;28750;59.842;17.584;2023-07-20T06:16:47;16.60;90.40
43143;DHT22;28750;59.842;17.584;2023-07-20T06:19:14;16.80;1.00
43143;DHT22;28750;59.842;17.584;2023-07-20T06:21:41;17.00;1.00
43143;DHT22;28750;59.842;17.584;2023-07-20T06:24:08;16.80;99.90
43143;DHT22;28750;59.842;17.584;2023-07-20T06:26:35;16.70;99.90
43143;DHT22;28750;59.842;17.584;2023-07-20T06:29:08;16.60;99.90
43143;DHT22;28750;59.842;17.584;2023-07-20T06:31:36;16.40;99.90
43143;DHT22;28750;59.842;17.584;2023-07-20T06:34:03;16.40;99.90
43143;DHT22;28750;59.842;17.584;2023-07-20T06:36:30;16.60;99.90
43143;DHT22;28750;59.842;17.584;2023-07-20T06:38:58;16.60;99.90
43143;DHT22;28750;59.842;17.584;2023-07-20T06:41:25;16.70;99.90
43143;DHT22;28750;59.842;17.584;2023-07-20T06:43:52;16.80;99.90
43143;DHT22;28750;59.842;17.584;2023-07-20T06:46:25;16.70;99.90
43143;DHT22;28750;59.842;17.584;2023-07-20T06:48:52;16.80;99.90
43143;DHT22;28750;59.842;17.584;2023-07-20T06:51:20;16.90;95.10
43143;DHT22;28750;59.842;17.584;2023-07-20T06:53:47;17.00;99.90
43143;DHT22;28750;59.842;17.584;2023-07-20T06:56:14;16.70;1.00
43143;DHT22;28750;59.842;17.584;2023-07-20T06:58:41;16.90;44.00
43143;DHT22;28750;59.842;17.584;2023-07-20T07:01:08;16.90;4.50
43143;DHT22;28750;59.842;17.584;2023-07-20T07:03:36;17.00;99.90
43143;DHT22;28750;59.842;17.584;2023-07-20T07:06:03;17.20;1.00
43143;DHT22;28750;59.842;17.584;2023-07-20T07:08:30;17.10;1.00
43143;DHT22;28750;59.842;17.584;2023-07-20T07:10:57;17.40;1.00
43143;DHT22;28750;59.842;17.584;2023-07-20T07:13:25;17.40;99.90
43143;DHT22;28750;59.842;17.584;2023-07-20T07:15:52;17.20;99.90
43143;DHT22;28750;59.842;17.584;2023-07-20T07:18:19;17.20;99.90
43143;DHT22;28750;59.842;17.584;2023-07-20T07:20:55;17.30;93.00
43143;DHT22;28750;59.842;17.584;2023-07-20T07:23:22;17.60;2.00
43143;DHT22;28750;59.842;17.584;2023-07-20T07:25:50;17.50;1.00
43143;DHT22;28750;59.842;17.584;2023-07-20T07:28:17;17.80;99.90
43143;DHT22;28750;59.842;17.584;2023-07-20T07:30:44;18.30;1.00
43143;DHT22;28750;59.842;17.584;2023-07-20T07:33:11;17.90;99.90
43143;DHT22;28750;59.842;17.584;2023-07-20T07:35:38;17.70;99.90
43143;DHT22;28750;59.842;17.584;2023-07-20T07:38:06;17.30;99.90
43143;DHT22;28750;59.842;17.584;2023-07-20T07:40:33;17.00;1.00
43143;DHT22;28750;59.842;17.584;2023-07-20T07:43:00;17.70;1.00
43143;DHT22;28750;59.842;17.584;2023-07-20T07:45:27;17.90;99.90
43143;DHT22;28750;59.842;17.584;2023-07-20T07:47:55;17.90;99.90
43143;DHT22;28750;59.842;17.584;2023-07-20T07:50:22;17.40;99.90
43143;DHT22;28750;59.842;17.584;2023-07-20T07:52:49;17.40;99.90
43143;DHT22;28750;59.842;17.584;2023-07-20T07:55:16;17.40;90.30
43143;DHT22;28750;59.842;17.584;2023-07-20T07:57:43;17.20;99.90
43143;DHT22;28750;59.842;17.584;2023-07-20T08:00:14;16.80;99.90
43143;DHT22;28750;59.842;17.584;2023-07-20T08:02:44;16.90;1.00
43143;DHT22;28750;59.842;17.584;2023-07-20T08:05:12;18.00;1.00
43143;DHT22;28750;59.842;17.584;2023-07-20T08:07:39;18.80;71.80
43143;DHT22;28750;59.842;17.584;2023-07-20T08:10:07;18.70;1.00
43143;DHT22;28750;59.842;17.584;2023-07-20T08:12:34;19.40;1.00
43143;DHT22;28750;59.842;17.584;2023-07-20T08:15:02;19.70;99.90
43143;DHT22;28750;59.842;17.584;2023-07-20T08:17:29;19.40;99.90
43143;DHT22;28750;59.842;17.584;2023-07-20T08:19:56;19.00;99.90
43143;DHT22;28750;59.842;17.584;2023-07-20T08:22:23;18.70;99.90
43143;DHT22;28750;59.842;17.584;2023-07-20T08:24:51;19.30;99.90
43143;DHT22;28750;59.842;17.584;2023-07-20T08:27:18;19.90;99.90
43143;DHT22;28750;59.842;17.584;2023-07-20T08:29:45;19.80;99.90
43143;DHT22;28750;59.842;17.584;2023-07-20T08:32:13;20.70;99.90
43143;DHT22;28750;59.842;17.584;2023-07-20T08:34:42;20.10;1.00
43143;DHT22;28750;59.842;17.584;2023-07-20T08:37:09;20.10;99.90
43143;DHT22;28750;59.842;17.584;2023-07-20T08:39:36;18.90;1.00
43143;DHT22;28750;59.842;17.584;2023-07-20T08:42:04;19.80;1.00
43143;DHT22;28750;59.842;17.584;2023-07-20T08:44:38;19.70;1.00
43143;DHT22;28750;59.842;17.584;2023-07-20T08:47:06;19.50;1.00
43143;DHT22;28750;59.842;17.584;2023-07-20T08:49:34;20.20;99.90
43143;DHT22;28750;59.842;17.584;2023-07-20T08:52:03;20.70;99.90
43143;DHT22;28750;59.842;17.584;2023-07-20T08:54:31;20.60;99.90
43143;DHT22;28750;59.842;17.584;2023-07-20T08:57:04;20.40;99.90
43143;DHT22;28750;59.842;17.584;2023-07-20T08:59:32;20.70;99.90
43143;DHT22;28750;59.842;17.584;2023-07-20T09:02:02;19.80;99.90
43143;DHT22;28750;59.842;17.584;2023-07-20T09:04:31;20.50;99.90
43143;DHT22;28750;59.842;17.584;2023-07-20T09:06:58;21.30;99.90
43143;DHT22;28750;59.842;17.584;2023-07-20T09:09:26;21.80;84.60
43143;DHT22;28750;59.842;17.584;2023-07-20T09:11:53;21.80;85.80
43143;DHT22;28750;59.842;17.584;2023-07-20T09:14:23;22.30;33.60
43143;DHT22;28750;59.842;17.584;2023-07-20T09:16:53;22.60;88.50
43143;DHT22;28750;59.842;17.584;2023-07-20T09:19:21;22.80;1.00
43143;DHT22;28750;59.842;17.584;2023-07-20T09:21:50;21.70;1.00
43143;DHT22;28750;59.842;17.584;2023-07-20T09:24:18;22.60;1.00
43143;DHT22;28750;59.842;17.584;2023-07-20T09:26:47;22.40;1.00
43143;DHT22;28750;59.842;17.584;2023-07-20T09:29:19;22.80;1.00
43143;DHT22;28750;59.842;17.584;2023-07-20T09:31:59;21.60;1.00
43143;DHT22;28750;59.842;17.584;2023-07-20T09:34:31;21.00;1.00
43143;DHT22;28750;59.842;17.584;2023-07-20T09:36:59;20.10;1.00
43143;DHT22;28750;59.842;17.584;2023-07-20T09:39:27;19.70;99.90
43143;DHT22;28750;59.842;17.584;2023-07-20T09:41:54;19.30;44.10
43143;DHT22;28750;59.842;17.584;2023-07-20T09:44:21;19.20;99.90
43143;DHT22;28750;59.842;17.584;2023-07-20T09:46:49;18.90;99.90
43143;DHT22;28750;59.842;17.584;2023-07-20T09:49:17;18.90;99.90
43143;DHT22;28750;59.842;17.584;2023-07-20T09:51:46;18.60;99.90
43143;DHT22;28750;59.842;17.584;2023-07-20T09:54:14;18.10;99.90
43143;DHT22;28750;59.842;17.584;2023-07-20T09:56:42;18.00;99.90
43143;DHT22;28750;59.842;17.584;2023-07-20T09:59:09;18.00;1.00
43143;DHT22;28750;59.842;17.584;2023-07-20T10:01:37;18.10;1.00
43143;DHT22;28750;59.842;17.584;2023-07-20T10:04:09;17.80;99.90
43143;DHT22;28750;59.842;17.584;2023-07-20T10:06:42;17.80;99.90
43143;DHT22;28750;59.842;17.584;2023-07-20T10:09:11;18.10;99.90
43143;DHT22;28750;59.842;17.584;2023-07-20T10:11:43;18.50;99.90
43143;DHT22;28750;59.842;17.584;2023-07-20T10:14:12;19.30;99.90
43143;DHT22;28750;59.842;17.584;2023-07-20T10:16:49;20.70;99.90
43143;DHT22;28750;59.842;17.584;2023-07-20T10:19:56;21.50;43.90
43143;DHT22;28750;59.842;17.584;2023-07-20T10:22:24;21.90;1.00
43143;DHT22;28750;59.842;17.584;2023-07-20T10:24:53;21.80;1.00
43143;DHT22;28750;59.842;17.584;2023-07-20T10:27:23;22.30;99.90
43143;DHT22;28750;59.842;17.584;2023-07-20T10:29:51;22.90;99.90
43143;DHT22;28750;59.842;17.584;2023-07-20T10:32:21;22.20;99.90
43143;DHT22;28750;59.842;17.584;2023-07-20T10:34:52;22.20;99.90
43143;DHT22;28750;59.842;17.584;2023-07-20T10:37:51;22.30;99.90
43143;DHT22;28750;59.842;17.584;2023-07-20T10:40:38;23.50;99.90
43143;DHT22;28750;59.842;17.584;2023-07-20T10:43:09;23.80;99.90
43143;DHT22;28750;59.842;17.584;2023-07-20T10:45:40;23.60;99.90
43143;DHT22;28750;59.842;17.584;2023-07-20T10:48:24;23.10;99.90
43143;DHT22;28750;59.842;17.584;2023-07-20T10:51:11;22.90;99.90
43143;DHT22;28750;59.842;17.584;2023-07-20T10:53:40;22.30;99.90
43143;DHT22;28750;59.842;17.584;2023-07-20T10:56:12;23.60;99.90
43143;DHT22;28750;59.842;17.584;2023-07-20T10:58:41;23.80;99.90
43143;DHT22;28750;59.842;17.584;2023-07-20T11:01:08;23.40;99.90
43143;DHT22;28750;59.842;17.584;2023-07-20T11:03:38;23.30;99.90
43143;DHT22;28750;59.842;17.584;2023-07-20T11:09:04;24.10;99.90
43143;DHT22;28750;59.842;17.584;2023-07-20T11:11:34;23.90;91.70
43143;DHT22;28750;59.842;17.584;2023-07-20T11:14:07;23.10;1.00
43143;DHT22;28750;59.842;17.584;2023-07-20T11:16:45;23.60;1.00
43143;DHT22;28750;59.842;17.584;2023-07-20T11:19:25;23.50;1.00
43143;DHT22;28750;59.842;17.584;2023-07-20T11:21:54;23.60;47.90
43143;DHT22;28750;59.842;17.584;2023-07-20T11:24:22;24.00;21.20
43143;DHT22;28750;59.842;17.584;2023-07-20T11:26:50;24.00;3.20
43143;DHT22;28750;59.842;17.584;2023-07-20T11:29:22;23.80;1.00
43143;DHT22;28750;59.842;17.584;2023-07-20T11:31:50;23.60;1.00
43143;DHT22;28750;59.842;17.584;2023-07-20T11:34:19;24.40;6.30
43143;DHT22;28750;59.842;17.584;2023-07-20T11:36:48;24.00;1.00
43143;DHT22;28750;59.842;17.584;2023-07-20T11:39:17;24.00;11.20
43143;DHT22;28750;59.842;17.584;2023-07-20T11:41:51;23.70;1.00
43143;DHT22;28750;59.842;17.584;2023-07-20T11:44:26;23.50;1.00
43143;DHT22;28750;59.842;17.584;2023-07-20T11:49:29;24.10;1.00
43143;DHT22;28750;59.842;17.584;2023-07-20T11:51:57;24.10;8.90
43143;DHT22;28750;59.842;17.584;2023-07-20T11:54:25;24.00;14.40
43143;DHT22;28750;59.842;17.584;2023-07-20T11:56:55;24.30;1.00
43143;DHT22;28750;59.842;17.584;2023-07-20T11:59:22;23.90;3.40
43143;DHT22;28750;59.842;17.584;2023-07-20T12:01:49;24.40;1.00
43143;DHT22;28750;59.842;17.584;2023-07-20T12:04:17;24.40;1.00
43143;DHT22;28750;59.842;17.584;2023-07-20T12:06:45;24.10;1.00
43143;DHT22;28750;59.842;17.584;2023-07-20T12:09:17;24.10;1.00
43143;DHT22;28750;59.842;17.584;2023-07-20T12:11:45;23.90;3.20
43143;DHT22;28750;59.842;17.584;2023-07-20T12:14:12;24.20;64.70
43143;DHT22;28750;59.842;17.584;2023-07-20T12:16:39;22.70;28.00
43143;DHT22;28750;59.842;17.584;2023-07-20T12:19:13;22.20;18.40
43143;DHT22;28750;59.842;17.584;2023-07-20T12:21:41;21.50;65.00
43143;DHT22;28750;59.842;17.584;2023-07-20T12:24:10;20.90;51.90
43143;DHT22;28750;59.842;17.584;2023-07-20T12:26:37;20.80;77.80
43143;DHT22;28750;59.842;17.584;2023-07-20T12:29:04;20.60;64.70
43143;DHT22;28750;59.842;17.584;2023-07-20T12:31:36;20.70;88.50
43143;DHT22;28750;59.842;17.584;2023-07-20T12:34:03;20.70;99.90
43143;DHT22;28750;59.842;17.584;2023-07-20T12:36:31;21.00;96.20
43143;DHT22;28750;59.842;17.584;2023-07-20T12:38:58;21.10;39.90
43143;DHT22;28750;59.842;17.584;2023-07-20T12:41:26;20.90;24.50
43143;DHT22;28750;59.842;17.584;2023-07-20T12:43:54;20.70;1.00
43143;DHT22;28750;59.842;17.584;2023-07-20T12:46:23;20.90;1.00
43143;DHT22;28750;59.842;17.584;2023-07-20T12:48:51;21.30;77.20
43143;DHT22;28750;59.842;17.584;2023-07-20T12:51:19;21.70;35.10
43143;DHT22;28750;59.842;17.584;2023-07-20T12:53:46;21.80;91.70
43143;DHT22;28750;59.842;17.584;2023-07-20T12:56:13;21.30;29.10
43143;DHT22;28750;59.842;17.584;2023-07-20T12:58:40;20.60;64.50
43143;DHT22;28750;59.842;17.584;2023-07-20T13:01:08;20.60;99.90
43143;DHT22;28750;59.842;17.584;2023-07-20T13:03:35;20.90;99.90
43143;DHT22;28750;59.842;17.584;2023-07-20T13:06:02;20.80;99.90
43143;DHT22;28750;59.842;17.584;2023-07-20T13:08:30;21.90;99.90
43143;DHT22;28750;59.842;17.584;2023-07-20T13:10:57;21.70;99.90
43143;DHT22;28750;59.842;17.584;2023-07-20T13:13:26;21.00;99.90
43143;DHT22;28750;59.842;17.584;2023-07-20T13:15:53;21.20;99.90
43143;DHT22;28750;59.842;17.584;2023-07-20T13:18:20;21.80;99.90
43143;DHT22;28750;59.842;17.584;2023-07-20T13:20:47;22.20;89.60
43143;DHT22;28750;59.842;17.584;2023-07-20T13:23:14;22.50;99.90
43143;DHT22;28750;59.842;17.584;2023-07-20T13:25:41;22.10;99.90
43143;DHT22;28750;59.842;17.584;2023-07-20T13:28:08;21.80;99.90
43143;DHT22;28750;59.842;17.584;2023-07-20T13:30:35;22.40;99.90
43143;DHT22;28750;59.842;17.584;2023-07-20T13:33:02;22.50;98.50
43143;DHT22;28750;59.842;17.584;2023-07-20T13:35:30;23.30;99.90
43143;DHT22;28750;59.842;17.584;2023-07-20T13:37:57;23.20;53.80
43143;DHT22;28750;59.842;17.584;2023-07-20T13:40:24;21.80;27.10
43143;DHT22;28750;59.842;17.584;2023-07-20T13:42:51;22.00;87.40
43143;DHT22;28750;59.842;17.584;2023-07-20T13:45:18;22.90;91.60
43143;DHT22;28750;59.842;17.584;2023-07-20T13:47:45;23.40;4.40
43143;DHT22;28750;59.842;17.584;2023-07-20T13:50:12;23.60;5.80
43143;DHT22;28750;59.842;17.584;2023-07-20T13:52:39;22.70;1.00
43143;DHT22;28750;59.842;17.584;2023-07-20T13:55:06;23.20;1.00
43143;DHT22;28750;59.842;17.584;2023-07-20T13:57:33;23.20;1.00
43143;DHT22;28750;59.842;17.584;2023-07-20T14:00:01;22.80;1.00
43143;DHT22;28750;59.842;17.584;2023-07-20T14:02:29;23.20;1.00
43143;DHT22;28750;59.842;17.584;2023-07-20T14:04:56;23.70;1.00
43143;DHT22;28750;59.842;17.584;2023-07-20T14:07:23;23.20;1.00
43143;DHT22;28750;59.842;17.584;2023-07-20T14:09:51;22.80;1.00
43143;DHT22;28750;59.842;17.584;2023-07-20T14:12:18;22.70;1.00
43143;DHT22;28750;59.842;17.584;2023-07-20T14:14:45;22.50;1.00
43143;DHT22;28750;59.842;17.584;2023-07-20T14:17:12;23.70;1.00
43143;DHT22;28750;59.842;17.584;2023-07-20T14:19:40;23.40;1.00
43143;DHT22;28750;59.842;17.584;2023-07-20T14:22:07;24.00;1.00
43143;DHT22;28750;59.842;17.584;2023-07-20T14:24:34;24.50;1.00
43143;DHT22;28750;59.842;17.584;2023-07-20T14:27:01;23.60;1.00
43143;DHT22;28750;59.842;17.584;2023-07-20T14:29:28;24.00;1.00
43143;DHT22;28750;59.842;17.584;2023-07-20T14:31:57;24.70;1.00
43143;DHT22;28750;59.842;17.584;2023-07-20T14:34:24;24.30;1.00
43143;DHT22;28750;59.842;17.584;2023-07-20T14:36:51;24.10;1.00
43143;DHT22;28750;59.842;17.584;2023-07-20T14:39:19;24.30;1.00
43143;DHT22;28750;59.842;17.584;2023-07-20T14:41:49;24.20;1.00
43143;DHT22;28750;59.842;17.584;2023-07-20T14:44:17;24.30;1.00
43143;DHT22;28750;59.842;17.584;2023-07-20T14:46:44;24.00;1.00
43143;DHT22;28750;59.842;17.584;2023-07-20T14:49:11;23.70;1.00
43143;DHT22;28750;59.842;17.584;2023-07-20T14:51:38;22.90;1.00
43143;DHT22;28750;59.842;17.584;2023-07-20T14:54:09;22.50;1.00
43143;DHT22;28750;59.842;17.584;2023-07-20T14:56:38;22.30;1.00
43143;DHT22;28750;59.842;17.584;2023-07-20T14:59:06;22.80;1.00
43143;DHT22;28750;59.842;17.584;2023-07-20T15:01:34;23.10;1.00
43143;DHT22;28750;59.842;17.584;2023-07-20T15:04:01;23.10;1.00
43143;DHT22;28750;59.842;17.584;2023-07-20T15:06:29;22.30;1.00
43143;DHT22;28750;59.842;17.584;2023-07-20T15:08:57;21.80;1.00
43143;DHT22;28750;59.842;17.584;2023-07-20T15:11:26;21.50;1.00
43143;DHT22;28750;59.842;17.584;2023-07-20T15:13:53;21.20;1.00
43143;DHT22;28750;59.842;17.584;2023-07-20T15:16:20;21.20;1.00
43143;DHT22;28750;59.842;17.584;2023-07-20T15:18:47;20.80;1.00
43143;DHT22;28750;59.842;17.584;2023-07-20T15:21:15;20.60;1.00
43143;DHT22;28750;59.842;17.584;2023-07-20T15:23:43;20.50;1.00
43143;DHT22;28750;59.842;17.584;2023-07-20T15:26:11;20.20;1.00
43143;DHT22;28750;59.842;17.584;2023-07-20T15:28:40;20.20;1.00
43143;DHT22;28750;59.842;17.584;2023-07-20T15:31:07;20.00;1.00
43143;DHT22;28750;59.842;17.584;2023-07-20T15:33:34;19.80;24.70
43143;DHT22;28750;59.842;17.584;2023-07-20T15:36:01;19.70;69.50
43143;DHT22;28750;59.842;17.584;2023-07-20T15:38:30;19.60;96.00
43143;DHT22;28750;59.842;17.584;2023-07-20T15:40:58;19.30;99.90
43143;DHT22;28750;59.842;17.584;2023-07-20T15:43:27;19.00;99.90